Terminal Aerodrome Forecast
Issued by NWS

Home | Current Version | Previous Version | Text Only | Print | Product List | Glossary On
Versions: 1 2 3 4 5 6 7 8 9 10 11 12 13
000
FTUS45 KABQ 192333
TAFTCC
TAF
KTCC 192333Z 2000/2024 22012G20KT P6SM SCT070 BKN200
     FM200900 26010KT P6SM FEW070
     FM201730 03014G24KT P6SM FEW070=

USA.gov is the U.S. government's official web portal to all federal, state and local government web resources and services.